Spring Green, WI

5:21 AM CDT on August 31, 2015 (GMT -0500)
Tri-County Regional | | Change Station
CLOSE
Current Station
Airport
Location: Lone Rock,
Elevation: 719 ft
Nearby Weather Stations
Active Advisory: Special Statement

Elev 719 ft 43.21 °N, 90.18 °W | Updated 15 minutes ago

Overcast
Overcast
59 °F
Feels Like 59 °F
N
0
Wind Variable Wind from North

Today
High -- | Low -- °F
--% Chance of Precip.
Yesterday
High -- | Low -- °F
Precip. -- in
6:23 AM 7:37 PM
Waning Gibbous, 96% visible
Pressure 30.03 in
Visibility 2.0 miles
Clouds Few 200 ft
Overcast 1700 ft
Dew Point 58 °F
Humidity 96%
Rainfall 0.00 in
Snow Depth Not available.
UV 0 out of 12
Pollen 9.50 out of 12
Air Quality Not available.
Flu Activity Not available.
METAR KLNR 311006Z AUTO 00000KT 2SM BR FEW002 OVC017 15/14 A3003 RMK AO2 T01500144
Pressure 30.03 in
Visibility 2.0 miles
Clouds Few 200 ft
Overcast 1700 ft
Dew Point 58 °F
Humidity 96%
Rainfall 0.00 in
Snow Depth Not available.
UV 0 out of 12
Pollen 9.50 out of 12
Air Quality Not available.
Flu Activity Not available.
METAR KLNR 311006Z AUTO 00000KT 2SM BR FEW002 OVC017 15/14 A3003 RMK AO2 T01500144

10-Day Weather Forecast

×

Almanac

Astronomy

Aug. 31, 2015 Rise Set
Actual Time
Civil Twilight
Nautical Twilight
Astronomical Twilight
Moon
Length of Visible Light
Length of Day
Tomorrow will be .
, % of the Moon is Illuminated

Today's Extremes

State Highs State Lows

Community

WunderPhotos

Upload Photos

1,851,229 photos uploaded!

WunderBlogs® & News

Nearby

Air Quality

  Air Quality AQ Index Pollutant
Not available.

Snow Depth

Station Depth Elevation

Earthquake Activity

City Distance Mag. Time & Date
Minimum magnitude displayed is 2.5.

Coastal Water Temperatures

Place Temperature

Stations

Nearby Weather Stations

Station Location Temp. Windchill Dew Point Humidity Wind Precip. Elev Updated Type
                   
Special Statement
Statement as of 4:49 AM CDT on August 31, 2015

... Areas of dense fog early this morning...

Look for areas of dense fog early this morning. If
traveling... watch out for reduced visibility which may drop to 1/4
mile at times. Slow down and use caution.


Das


449 am CDT Mon Aug 31 2015

... Areas of dense fog early this morning...

Look for areas of dense fog early this morning. If
traveling... watch out for reduced visibility which may drop to 1/4
mile at times. Slow down and use caution.


Das